Terminal Aerodrome Forecast
Issued by NWS

Home | Current Version | Previous Version | Text Only | Print | Product List | Glossary On
Versions: 1 2 3 4 5 6 7 8 9 10 11 12 13 14
000
FTUS45 KFGZ 030254 AAA
TAFPGA
TAF AMD
KPGA 030254Z 0303/0324 19010G16KT P6SM BKN100 OVC250
     FM030400 18005KT P6SM SCT100 SCT200
     FM031900 30010G15KT P6SM BKN090 BKN250=

USA.gov is the U.S. government's official web portal to all federal, state and local government web resources and services.